sensor_id;sensor_type;location;lat;lon;timestamp;P1;durP1;ratioP1;P2;durP2;ratioP2
19861;SDS011;10093;48.148;8.542;2023-06-14T00:01:40;6.10;;;4.28;;
19861;SDS011;10093;48.148;8.542;2023-06-14T00:04:06;8.50;;;4.45;;
19861;SDS011;10093;48.148;8.542;2023-06-14T00:06:33;7.85;;;3.97;;
19861;SDS011;10093;48.148;8.542;2023-06-14T00:08:59;7.22;;;4.30;;
19861;SDS011;10093;48.148;8.542;2023-06-14T00:11:25;5.95;;;4.70;;
19861;SDS011;10093;48.148;8.542;2023-06-14T00:13:52;6.95;;;4.00;;
19861;SDS011;10093;48.148;8.542;2023-06-14T00:16:18;4.97;;;4.15;;
19861;SDS011;10093;48.148;8.542;2023-06-14T00:18:44;6.80;;;4.40;;
19861;SDS011;10093;48.148;8.542;2023-06-14T00:21:10;5.22;;;4.50;;
19861;SDS011;10093;48.148;8.542;2023-06-14T00:23:37;9.52;;;4.45;;
19861;SDS011;10093;48.148;8.542;2023-06-14T00:26:03;7.20;;;4.18;;
19861;SDS011;10093;48.148;8.542;2023-06-14T00:28:28;4.60;;;3.78;;
19861;SDS011;10093;48.148;8.542;2023-06-14T00:30:54;6.57;;;4.28;;
19861;SDS011;10093;48.148;8.542;2023-06-14T00:33:20;7.10;;;4.93;;
19861;SDS011;10093;48.148;8.542;2023-06-14T00:35:46;7.25;;;4.43;;
19861;SDS011;10093;48.148;8.542;2023-06-14T00:38:12;5.32;;;4.32;;
19861;SDS011;10093;48.148;8.542;2023-06-14T00:40:37;7.85;;;4.53;;
19861;SDS011;10093;48.148;8.542;2023-06-14T00:43:03;9.18;;;5.05;;
19861;SDS011;10093;48.148;8.542;2023-06-14T00:45:29;7.60;;;4.50;;
19861;SDS011;10093;48.148;8.542;2023-06-14T00:47:56;5.13;;;4.45;;
19861;SDS011;10093;48.148;8.542;2023-06-14T00:50:23;7.10;;;4.40;;
19861;SDS011;10093;48.148;8.542;2023-06-14T00:52:49;6.90;;;4.78;;
19861;SDS011;10093;48.148;8.542;2023-06-14T00:55:18;8.43;;;4.95;;
19861;SDS011;10093;48.148;8.542;2023-06-14T00:57:46;7.22;;;4.78;;
19861;SDS011;10093;48.148;8.542;2023-06-14T01:00:13;6.80;;;5.38;;
19861;SDS011;10093;48.148;8.542;2023-06-14T01:02:39;8.18;;;4.72;;
19861;SDS011;10093;48.148;8.542;2023-06-14T01:05:05;6.43;;;4.80;;
19861;SDS011;10093;48.148;8.542;2023-06-14T01:15:53;7.05;;;4.43;;
19861;SDS011;10093;48.148;8.542;2023-06-14T01:18:21;7.63;;;4.60;;
19861;SDS011;10093;48.148;8.542;2023-06-14T01:20:49;4.40;;;3.92;;
19861;SDS011;10093;48.148;8.542;2023-06-14T01:23:18;8.13;;;4.93;;
19861;SDS011;10093;48.148;8.542;2023-06-14T01:25:45;5.70;;;4.72;;
19861;SDS011;10093;48.148;8.542;2023-06-14T01:28:12;8.40;;;5.13;;
19861;SDS011;10093;48.148;8.542;2023-06-14T01:30:42;5.82;;;4.82;;
19861;SDS011;10093;48.148;8.542;2023-06-14T01:33:12;8.50;;;4.50;;
19861;SDS011;10093;48.148;8.542;2023-06-14T01:35:41;8.68;;;5.30;;
19861;SDS011;10093;48.148;8.542;2023-06-14T01:38:15;7.43;;;5.07;;
19861;SDS011;10093;48.148;8.542;2023-06-14T01:40:44;10.93;;;5.35;;
19861;SDS011;10093;48.148;8.542;2023-06-14T01:43:13;9.07;;;5.10;;
19861;SDS011;10093;48.148;8.542;2023-06-14T01:45:41;6.72;;;4.75;;
19861;SDS011;10093;48.148;8.542;2023-06-14T01:48:08;7.03;;;4.90;;
19861;SDS011;10093;48.148;8.542;2023-06-14T01:50:34;8.13;;;5.45;;
19861;SDS011;10093;48.148;8.542;2023-06-14T01:53:00;10.43;;;4.65;;
19861;SDS011;10093;48.148;8.542;2023-06-14T01:55:26;8.60;;;5.50;;
19861;SDS011;10093;48.148;8.542;2023-06-14T01:57:52;6.68;;;4.80;;
19861;SDS011;10093;48.148;8.542;2023-06-14T02:00:18;8.68;;;5.28;;
19861;SDS011;10093;48.148;8.542;2023-06-14T02:02:55;6.82;;;4.95;;
19861;SDS011;10093;48.148;8.542;2023-06-14T02:05:21;9.40;;;5.25;;
19861;SDS011;10093;48.148;8.542;2023-06-14T02:07:47;10.02;;;5.30;;
19861;SDS011;10093;48.148;8.542;2023-06-14T02:10:12;7.25;;;4.65;;
19861;SDS011;10093;48.148;8.542;2023-06-14T02:12:39;6.22;;;5.13;;
19861;SDS011;10093;48.148;8.542;2023-06-14T02:15:05;7.03;;;5.07;;
19861;SDS011;10093;48.148;8.542;2023-06-14T02:17:32;7.20;;;5.25;;
19861;SDS011;10093;48.148;8.542;2023-06-14T02:19:57;6.78;;;5.18;;
19861;SDS011;10093;48.148;8.542;2023-06-14T02:22:23;7.88;;;5.13;;
19861;SDS011;10093;48.148;8.542;2023-06-14T02:24:49;5.93;;;4.93;;
19861;SDS011;10093;48.148;8.542;2023-06-14T02:27:15;6.70;;;5.30;;
19861;SDS011;10093;48.148;8.542;2023-06-14T02:29:41;6.38;;;5.28;;
19861;SDS011;10093;48.148;8.542;2023-06-14T02:32:07;6.32;;;5.28;;
19861;SDS011;10093;48.148;8.542;2023-06-14T02:34:33;6.45;;;4.85;;
19861;SDS011;10093;48.148;8.542;2023-06-14T02:36:59;8.40;;;5.25;;
19861;SDS011;10093;48.148;8.542;2023-06-14T02:39:27;6.85;;;5.47;;
19861;SDS011;10093;48.148;8.542;2023-06-14T02:41:53;7.10;;;5.20;;
19861;SDS011;10093;48.148;8.542;2023-06-14T02:44:19;6.15;;;5.28;;
19861;SDS011;10093;48.148;8.542;2023-06-14T02:46:48;7.38;;;5.60;;
19861;SDS011;10093;48.148;8.542;2023-06-14T02:49:14;8.38;;;4.72;;
19861;SDS011;10093;48.148;8.542;2023-06-14T02:51:40;8.23;;;5.10;;
19861;SDS011;10093;48.148;8.542;2023-06-14T02:54:05;5.70;;;5.07;;
19861;SDS011;10093;48.148;8.542;2023-06-14T02:56:31;6.88;;;5.55;;
19861;SDS011;10093;48.148;8.542;2023-06-14T02:58:57;6.25;;;4.88;;
19861;SDS011;10093;48.148;8.542;2023-06-14T03:01:24;7.20;;;5.63;;
19861;SDS011;10093;48.148;8.542;2023-06-14T03:04:02;6.90;;;5.35;;
19861;SDS011;10093;48.148;8.542;2023-06-14T03:06:29;6.78;;;4.97;;
19861;SDS011;10093;48.148;8.542;2023-06-14T03:08:55;8.00;;;6.13;;
19861;SDS011;10093;48.148;8.542;2023-06-14T03:11:24;8.75;;;5.85;;
19861;SDS011;10093;48.148;8.542;2023-06-14T03:13:51;10.57;;;6.78;;
19861;SDS011;10093;48.148;8.542;2023-06-14T03:16:17;7.88;;;6.05;;
19861;SDS011;10093;48.148;8.542;2023-06-14T03:18:51;8.38;;;5.90;;
19861;SDS011;10093;48.148;8.542;2023-06-14T03:21:17;6.40;;;5.30;;
19861;SDS011;10093;48.148;8.542;2023-06-14T03:23:46;9.13;;;5.10;;
19861;SDS011;10093;48.148;8.542;2023-06-14T03:26:12;6.90;;;5.03;;
19861;SDS011;10093;48.148;8.542;2023-06-14T03:28:45;7.32;;;5.93;;
19861;SDS011;10093;48.148;8.542;2023-06-14T03:31:12;9.13;;;5.95;;
19861;SDS011;10093;48.148;8.542;2023-06-14T03:33:38;6.78;;;5.72;;
19861;SDS011;10093;48.148;8.542;2023-06-14T03:36:04;7.65;;;6.07;;
19861;SDS011;10093;48.148;8.542;2023-06-14T03:38:30;7.35;;;5.68;;
19861;SDS011;10093;48.148;8.542;2023-06-14T03:40:56;9.20;;;5.40;;
19861;SDS011;10093;48.148;8.542;2023-06-14T03:43:22;8.98;;;5.80;;
19861;SDS011;10093;48.148;8.542;2023-06-14T03:45:47;7.32;;;5.82;;
19861;SDS011;10093;48.148;8.542;2023-06-14T03:48:13;8.43;;;5.65;;
19861;SDS011;10093;48.148;8.542;2023-06-14T03:50:39;8.38;;;5.75;;
19861;SDS011;10093;48.148;8.542;2023-06-14T03:53:05;6.25;;;5.13;;
19861;SDS011;10093;48.148;8.542;2023-06-14T03:55:31;8.65;;;5.47;;
19861;SDS011;10093;48.148;8.542;2023-06-14T03:57:58;7.93;;;5.45;;
19861;SDS011;10093;48.148;8.542;2023-06-14T04:00:24;7.65;;;5.60;;
19861;SDS011;10093;48.148;8.542;2023-06-14T04:02:49;8.23;;;5.28;;
19861;SDS011;10093;48.148;8.542;2023-06-14T04:05:15;7.95;;;5.75;;
19861;SDS011;10093;48.148;8.542;2023-06-14T04:07:42;6.18;;;5.05;;
19861;SDS011;10093;48.148;8.542;2023-06-14T04:10:10;6.88;;;5.65;;
19861;SDS011;10093;48.148;8.542;2023-06-14T04:12:39;7.00;;;5.38;;
19861;SDS011;10093;48.148;8.542;2023-06-14T04:15:05;7.75;;;5.32;;
19861;SDS011;10093;48.148;8.542;2023-06-14T04:17:33;5.90;;;5.22;;
19861;SDS011;10093;48.148;8.542;2023-06-14T04:19:59;7.30;;;5.20;;
19861;SDS011;10093;48.148;8.542;2023-06-14T04:22:25;8.27;;;5.53;;
19861;SDS011;10093;48.148;8.542;2023-06-14T04:24:56;6.38;;;5.20;;
19861;SDS011;10093;48.148;8.542;2023-06-14T04:27:22;6.70;;;5.20;;
19861;SDS011;10093;48.148;8.542;2023-06-14T04:29:54;8.07;;;5.28;;
19861;SDS011;10093;48.148;8.542;2023-06-14T04:32:24;6.03;;;5.15;;
19861;SDS011;10093;48.148;8.542;2023-06-14T04:34:52;8.77;;;4.90;;
19861;SDS011;10093;48.148;8.542;2023-06-14T04:37:22;5.43;;;4.90;;
19861;SDS011;10093;48.148;8.542;2023-06-14T04:39:48;7.78;;;4.95;;
19861;SDS011;10093;48.148;8.542;2023-06-14T04:42:15;8.32;;;5.28;;
19861;SDS011;10093;48.148;8.542;2023-06-14T04:44:41;7.60;;;4.88;;
19861;SDS011;10093;48.148;8.542;2023-06-14T04:47:08;7.05;;;5.15;;
19861;SDS011;10093;48.148;8.542;2023-06-14T04:49:37;5.47;;;4.60;;
19861;SDS011;10093;48.148;8.542;2023-06-14T04:52:05;5.63;;;5.03;;
19861;SDS011;10093;48.148;8.542;2023-06-14T04:54:31;7.03;;;5.00;;
19861;SDS011;10093;48.148;8.542;2023-06-14T04:56:58;8.02;;;4.90;;
19861;SDS011;10093;48.148;8.542;2023-06-14T04:59:24;5.55;;;4.63;;
19861;SDS011;10093;48.148;8.542;2023-06-14T05:01:50;8.23;;;5.22;;
19861;SDS011;10093;48.148;8.542;2023-06-14T05:04:16;7.85;;;5.10;;
19861;SDS011;10093;48.148;8.542;2023-06-14T05:06:43;6.57;;;5.20;;
19861;SDS011;10093;48.148;8.542;2023-06-14T05:09:19;8.25;;;5.05;;
19861;SDS011;10093;48.148;8.542;2023-06-14T05:11:46;6.72;;;5.22;;
19861;SDS011;10093;48.148;8.542;2023-06-14T05:14:12;8.80;;;4.10;;
19861;SDS011;10093;48.148;8.542;2023-06-14T05:16:38;5.00;;;4.10;;
19861;SDS011;10093;48.148;8.542;2023-06-14T05:19:04;5.45;;;3.38;;
19861;SDS011;10093;48.148;8.542;2023-06-14T05:21:30;6.05;;;3.28;;
19861;SDS011;10093;48.148;8.542;2023-06-14T05:23:58;4.82;;;3.55;;
19861;SDS011;10093;48.148;8.542;2023-06-14T05:26:24;4.93;;;3.33;;
19861;SDS011;10093;48.148;8.542;2023-06-14T05:28:53;6.10;;;3.83;;
19861;SDS011;10093;48.148;8.542;2023-06-14T05:31:22;4.32;;;3.33;;
19861;SDS011;10093;48.148;8.542;2023-06-14T05:33:49;4.35;;;3.65;;
19861;SDS011;10093;48.148;8.542;2023-06-14T05:36:15;5.25;;;3.42;;
19861;SDS011;10093;48.148;8.542;2023-06-14T05:38:40;5.80;;;3.30;;
19861;SDS011;10093;48.148;8.542;2023-06-14T05:41:06;4.55;;;3.65;;
19861;SDS011;10093;48.148;8.542;2023-06-14T05:43:32;4.15;;;3.75;;
19861;SDS011;10093;48.148;8.542;2023-06-14T05:45:57;5.55;;;3.38;;
19861;SDS011;10093;48.148;8.542;2023-06-14T05:48:23;6.15;;;3.33;;
19861;SDS011;10093;48.148;8.542;2023-06-14T05:50:48;3.85;;;3.55;;
19861;SDS011;10093;48.148;8.542;2023-06-14T05:53:14;8.13;;;3.42;;
19861;SDS011;10093;48.148;8.542;2023-06-14T05:55:40;3.17;;;2.90;;
19861;SDS011;10093;48.148;8.542;2023-06-14T05:58:05;10.38;;;4.15;;
19861;SDS011;10093;48.148;8.542;2023-06-14T06:00:31;6.28;;;3.58;;
19861;SDS011;10093;48.148;8.542;2023-06-14T06:02:57;7.03;;;3.35;;
19861;SDS011;10093;48.148;8.542;2023-06-14T06:05:22;4.43;;;3.53;;
19861;SDS011;10093;48.148;8.542;2023-06-14T06:07:48;4.53;;;3.28;;
19861;SDS011;10093;48.148;8.542;2023-06-14T06:10:14;5.28;;;2.90;;
19861;SDS011;10093;48.148;8.542;2023-06-14T06:12:43;7.25;;;3.20;;
19861;SDS011;10093;48.148;8.542;2023-06-14T06:15:09;4.25;;;3.15;;
19861;SDS011;10093;48.148;8.542;2023-06-14T06:17:38;4.55;;;3.30;;
19861;SDS011;10093;48.148;8.542;2023-06-14T06:20:04;6.15;;;2.78;;
19861;SDS011;10093;48.148;8.542;2023-06-14T06:22:33;6.30;;;3.47;;
19861;SDS011;10093;48.148;8.542;2023-06-14T06:25:01;5.30;;;3.22;;
19861;SDS011;10093;48.148;8.542;2023-06-14T06:27:27;4.30;;;3.35;;
19861;SDS011;10093;48.148;8.542;2023-06-14T06:29:53;5.10;;;3.30;;
19861;SDS011;10093;48.148;8.542;2023-06-14T06:32:19;5.20;;;3.40;;
19861;SDS011;10093;48.148;8.542;2023-06-14T06:34:44;4.30;;;3.38;;
19861;SDS011;10093;48.148;8.542;2023-06-14T06:37:10;2.92;;;2.72;;
19861;SDS011;10093;48.148;8.542;2023-06-14T06:39:36;7.10;;;3.20;;
19861;SDS011;10093;48.148;8.542;2023-06-14T06:42:02;6.07;;;3.40;;
19861;SDS011;10093;48.148;8.542;2023-06-14T06:44:28;8.18;;;3.45;;
19861;SDS011;10093;48.148;8.542;2023-06-14T06:46:53;4.05;;;3.20;;
19861;SDS011;10093;48.148;8.542;2023-06-14T06:49:19;8.98;;;3.55;;
19861;SDS011;10093;48.148;8.542;2023-06-14T06:51:58;5.63;;;3.30;;
19861;SDS011;10093;48.148;8.542;2023-06-14T06:54:25;4.82;;;3.05;;
19861;SDS011;10093;48.148;8.542;2023-06-14T06:56:51;4.13;;;2.97;;
19861;SDS011;10093;48.148;8.542;2023-06-14T06:59:16;8.05;;;3.25;;
19861;SDS011;10093;48.148;8.542;2023-06-14T07:01:42;7.45;;;2.80;;
19861;SDS011;10093;48.148;8.542;2023-06-14T07:04:07;5.30;;;2.70;;
19861;SDS011;10093;48.148;8.542;2023-06-14T07:06:33;9.45;;;3.33;;
19861;SDS011;10093;48.148;8.542;2023-06-14T07:08:59;4.82;;;2.95;;
19861;SDS011;10093;48.148;8.542;2023-06-14T07:11:26;11.57;;;3.10;;
19861;SDS011;10093;48.148;8.542;2023-06-14T07:13:52;9.80;;;3.08;;
19861;SDS011;10093;48.148;8.542;2023-06-14T07:16:18;13.68;;;3.10;;
19861;SDS011;10093;48.148;8.542;2023-06-14T07:18:43;26.33;;;3.78;;
19861;SDS011;10093;48.148;8.542;2023-06-14T07:21:09;19.63;;;3.25;;
19861;SDS011;10093;48.148;8.542;2023-06-14T07:23:35;15.00;;;2.90;;
19861;SDS011;10093;48.148;8.542;2023-06-14T07:26:01;7.22;;;2.22;;
19861;SDS011;10093;48.148;8.542;2023-06-14T07:28:26;10.82;;;2.63;;
19861;SDS011;10093;48.148;8.542;2023-06-14T07:30:52;8.80;;;2.42;;
19861;SDS011;10093;48.148;8.542;2023-06-14T07:33:17;6.80;;;2.30;;
19861;SDS011;10093;48.148;8.542;2023-06-14T07:35:43;4.97;;;1.77;;
19861;SDS011;10093;48.148;8.542;2023-06-14T07:38:09;31.35;;;3.20;;
19861;SDS011;10093;48.148;8.542;2023-06-14T07:40:34;18.75;;;2.90;;
19861;SDS011;10093;48.148;8.542;2023-06-14T07:43:00;15.25;;;2.35;;
19861;SDS011;10093;48.148;8.542;2023-06-14T07:45:27;10.80;;;2.20;;
19861;SDS011;10093;48.148;8.542;2023-06-14T07:47:52;2.97;;;1.95;;
19861;SDS011;10093;48.148;8.542;2023-06-14T07:50:18;5.03;;;1.83;;
19861;SDS011;10093;48.148;8.542;2023-06-14T07:52:44;12.30;;;2.22;;
19861;SDS011;10093;48.148;8.542;2023-06-14T07:55:10;11.68;;;2.50;;
19861;SDS011;10093;48.148;8.542;2023-06-14T07:57:36;12.45;;;3.25;;
19861;SDS011;10093;48.148;8.542;2023-06-14T08:00:02;20.65;;;2.85;;
19861;SDS011;10093;48.148;8.542;2023-06-14T08:02:31;30.02;;;2.92;;
19861;SDS011;10093;48.148;8.542;2023-06-14T08:04:56;4.95;;;2.33;;
19861;SDS011;10093;48.148;8.542;2023-06-14T08:07:22;6.47;;;2.05;;
19861;SDS011;10093;48.148;8.542;2023-06-14T08:09:48;3.85;;;2.08;;
19861;SDS011;10093;48.148;8.542;2023-06-14T08:12:13;2.13;;;1.88;;
19861;SDS011;10093;48.148;8.542;2023-06-14T08:14:39;3.35;;;2.05;;
19861;SDS011;10093;48.148;8.542;2023-06-14T08:17:05;4.35;;;2.30;;
19861;SDS011;10093;48.148;8.542;2023-06-14T08:19:30;6.53;;;2.42;;
19861;SDS011;10093;48.148;8.542;2023-06-14T08:21:56;5.88;;;2.05;;
19861;SDS011;10093;48.148;8.542;2023-06-14T08:24:23;13.30;;;2.70;;
19861;SDS011;10093;48.148;8.542;2023-06-14T08:26:54;11.40;;;2.40;;
19861;SDS011;10093;48.148;8.542;2023-06-14T08:29:21;18.00;;;3.17;;
19861;SDS011;10093;48.148;8.542;2023-06-14T08:31:47;13.30;;;2.67;;
19861;SDS011;10093;48.148;8.542;2023-06-14T08:34:13;11.02;;;2.80;;
19861;SDS011;10093;48.148;8.542;2023-06-14T08:36:39;16.55;;;2.58;;
19861;SDS011;10093;48.148;8.542;2023-06-14T08:39:04;13.00;;;2.58;;
19861;SDS011;10093;48.148;8.542;2023-06-14T08:41:30;12.98;;;2.67;;
19861;SDS011;10093;48.148;8.542;2023-06-14T08:43:57;5.40;;;2.85;;
19861;SDS011;10093;48.148;8.542;2023-06-14T08:46:25;8.82;;;2.38;;
19861;SDS011;10093;48.148;8.542;2023-06-14T08:48:52;2.83;;;2.03;;
19861;SDS011;10093;48.148;8.542;2023-06-14T08:51:22;7.68;;;2.40;;
19861;SDS011;10093;48.148;8.542;2023-06-14T08:53:55;3.40;;;2.05;;
19861;SDS011;10093;48.148;8.542;2023-06-14T08:56:26;7.30;;;2.25;;
19861;SDS011;10093;48.148;8.542;2023-06-14T08:58:59;4.68;;;2.30;;
19861;SDS011;10093;48.148;8.542;2023-06-14T09:01:30;12.68;;;2.78;;
19861;SDS011;10093;48.148;8.542;2023-06-14T09:03:59;20.67;;;3.00;;
19861;SDS011;10093;48.148;8.542;2023-06-14T09:06:25;9.43;;;2.33;;
19861;SDS011;10093;48.148;8.542;2023-06-14T09:08:53;13.48;;;2.55;;
19861;SDS011;10093;48.148;8.542;2023-06-14T09:11:20;9.75;;;2.05;;
19861;SDS011;10093;48.148;8.542;2023-06-14T09:13:46;4.70;;;2.22;;
19861;SDS011;10093;48.148;8.542;2023-06-14T09:16:12;9.00;;;2.45;;
19861;SDS011;10093;48.148;8.542;2023-06-14T09:18:39;10.93;;;2.22;;
19861;SDS011;10093;48.148;8.542;2023-06-14T09:21:08;5.28;;;2.50;;
19861;SDS011;10093;48.148;8.542;2023-06-14T09:23:38;10.18;;;2.30;;
19861;SDS011;10093;48.148;8.542;2023-06-14T09:26:08;4.68;;;1.77;;
19861;SDS011;10093;48.148;8.542;2023-06-14T09:28:36;1.67;;;1.50;;
19861;SDS011;10093;48.148;8.542;2023-06-14T09:31:05;2.17;;;1.75;;
19861;SDS011;10093;48.148;8.542;2023-06-14T09:33:33;6.35;;;1.88;;
19861;SDS011;10093;48.148;8.542;2023-06-14T09:35:59;7.32;;;1.90;;
19861;SDS011;10093;48.148;8.542;2023-06-14T09:38:25;9.48;;;2.08;;
19861;SDS011;10093;48.148;8.542;2023-06-14T09:40:51;9.65;;;1.88;;
19861;SDS011;10093;48.148;8.542;2023-06-14T09:43:17;10.05;;;2.40;;
19861;SDS011;10093;48.148;8.542;2023-06-14T09:45:43;18.88;;;3.53;;
19861;SDS011;10093;48.148;8.542;2023-06-14T09:48:13;9.57;;;2.40;;
19861;SDS011;10093;48.148;8.542;2023-06-14T09:50:42;5.65;;;1.98;;
19861;SDS011;10093;48.148;8.542;2023-06-14T09:53:11;4.57;;;1.83;;
19861;SDS011;10093;48.148;8.542;2023-06-14T09:55:38;17.13;;;2.58;;
19861;SDS011;10093;48.148;8.542;2023-06-14T09:58:06;14.13;;;2.83;;
19861;SDS011;10093;48.148;8.542;2023-06-14T10:00:33;9.50;;;2.40;;
19861;SDS011;10093;48.148;8.542;2023-06-14T10:03:08;8.80;;;2.80;;
19861;SDS011;10093;48.148;8.542;2023-06-14T10:05:43;26.50;;;3.35;;
19861;SDS011;10093;48.148;8.542;2023-06-14T10:08:13;6.78;;;2.63;;
19861;SDS011;10093;48.148;8.542;2023-06-14T10:10:41;9.63;;;2.95;;
19861;SDS011;10093;48.148;8.542;2023-06-14T10:13:08;12.20;;;2.72;;
19861;SDS011;10093;48.148;8.542;2023-06-14T10:18:23;3.35;;;2.85;;
19861;SDS011;10093;48.148;8.542;2023-06-14T10:23:56;8.35;;;2.47;;
19861;SDS011;10093;48.148;8.542;2023-06-14T10:26:26;8.13;;;2.58;;
19861;SDS011;10093;48.148;8.542;2023-06-14T10:28:59;7.13;;;2.60;;
19861;SDS011;10093;48.148;8.542;2023-06-14T10:34:31;7.32;;;2.30;;
19861;SDS011;10093;48.148;8.542;2023-06-14T10:37:03;8.93;;;2.70;;
19861;SDS011;10093;48.148;8.542;2023-06-14T10:39:30;7.40;;;2.85;;
19861;SDS011;10093;48.148;8.542;2023-06-14T10:41:57;5.07;;;2.20;;
19861;SDS011;10093;48.148;8.542;2023-06-14T10:46:54;3.70;;;2.70;;
19861;SDS011;10093;48.148;8.542;2023-06-14T10:52:11;8.93;;;2.72;;
19861;SDS011;10093;48.148;8.542;2023-06-14T10:57:45;5.55;;;2.47;;
19861;SDS011;10093;48.148;8.542;2023-06-14T11:00:16;9.90;;;3.00;;
19861;SDS011;10093;48.148;8.542;2023-06-14T11:05:23;3.05;;;2.67;;
19861;SDS011;10093;48.148;8.542;2023-06-14T11:10:45;5.40;;;2.33;;
19861;SDS011;10093;48.148;8.542;2023-06-14T11:13:11;4.57;;;2.78;;
19861;SDS011;10093;48.148;8.542;2023-06-14T11:15:37;3.80;;;2.80;;
19861;SDS011;10093;48.148;8.542;2023-06-14T11:18:04;4.28;;;2.30;;
19861;SDS011;10093;48.148;8.542;2023-06-14T11:20:32;6.60;;;2.50;;
19861;SDS011;10093;48.148;8.542;2023-06-14T11:22:59;5.10;;;2.35;;
19861;SDS011;10093;48.148;8.542;2023-06-14T11:25:25;3.53;;;3.08;;
19861;SDS011;10093;48.148;8.542;2023-06-14T11:27:53;4.80;;;2.80;;
19861;SDS011;10093;48.148;8.542;2023-06-14T11:30:20;4.63;;;2.50;;
19861;SDS011;10093;48.148;8.542;2023-06-14T11:32:47;6.78;;;2.80;;
19861;SDS011;10093;48.148;8.542;2023-06-14T11:35:13;9.98;;;2.38;;
19861;SDS011;10093;48.148;8.542;2023-06-14T11:37:39;5.28;;;2.67;;
19861;SDS011;10093;48.148;8.542;2023-06-14T11:40:07;5.20;;;2.60;;
19861;SDS011;10093;48.148;8.542;2023-06-14T11:42:34;3.67;;;2.75;;
19861;SDS011;10093;48.148;8.542;2023-06-14T11:45:00;6.55;;;2.58;;
19861;SDS011;10093;48.148;8.542;2023-06-14T11:47:37;4.07;;;2.30;;
19861;SDS011;10093;48.148;8.542;2023-06-14T11:50:05;2.65;;;2.00;;
19861;SDS011;10093;48.148;8.542;2023-06-14T11:52:35;5.38;;;2.38;;
19861;SDS011;10093;48.148;8.542;2023-06-14T11:55:02;6.13;;;2.40;;
19861;SDS011;10093;48.148;8.542;2023-06-14T11:57:34;4.82;;;2.65;;
19861;SDS011;10093;48.148;8.542;2023-06-14T12:00:04;16.45;;;3.10;;
19861;SDS011;10093;48.148;8.542;2023-06-14T12:02:37;20.20;;;3.28;;
19861;SDS011;10093;48.148;8.542;2023-06-14T12:05:06;9.20;;;2.67;;
19861;SDS011;10093;48.148;8.542;2023-06-14T12:07:38;11.75;;;2.38;;
19861;SDS011;10093;48.148;8.542;2023-06-14T12:10:07;5.18;;;2.40;;
19861;SDS011;10093;48.148;8.542;2023-06-14T12:12:38;4.95;;;2.33;;
19861;SDS011;10093;48.148;8.542;2023-06-14T12:15:05;3.05;;;2.63;;
19861;SDS011;10093;48.148;8.542;2023-06-14T12:17:35;5.65;;;3.03;;
19861;SDS011;10093;48.148;8.542;2023-06-14T12:20:07;13.40;;;2.80;;
19861;SDS011;10093;48.148;8.542;2023-06-14T12:22:39;35.92;;;3.80;;
19861;SDS011;10093;48.148;8.542;2023-06-14T12:27:57;6.47;;;2.50;;
19861;SDS011;10093;48.148;8.542;2023-06-14T12:30:23;13.20;;;2.80;;
19861;SDS011;10093;48.148;8.542;2023-06-14T12:32:49;11.25;;;2.95;;
19861;SDS011;10093;48.148;8.542;2023-06-14T12:35:16;14.77;;;2.90;;
19861;SDS011;10093;48.148;8.542;2023-06-14T12:37:43;6.28;;;2.40;;
19861;SDS011;10093;48.148;8.542;2023-06-14T12:40:10;4.20;;;2.58;;
19861;SDS011;10093;48.148;8.542;2023-06-14T12:42:36;4.53;;;2.67;;
19861;SDS011;10093;48.148;8.542;2023-06-14T12:45:02;6.32;;;2.60;;
19861;SDS011;10093;48.148;8.542;2023-06-14T12:47:28;7.30;;;2.70;;
19861;SDS011;10093;48.148;8.542;2023-06-14T12:49:54;4.32;;;2.42;;
19861;SDS011;10093;48.148;8.542;2023-06-14T12:52:20;6.05;;;2.45;;
19861;SDS011;10093;48.148;8.542;2023-06-14T12:54:45;4.82;;;2.53;;
19861;SDS011;10093;48.148;8.542;2023-06-14T12:57:11;3.00;;;2.40;;
19861;SDS011;10093;48.148;8.542;2023-06-14T12:59:37;6.60;;;2.42;;
19861;SDS011;10093;48.148;8.542;2023-06-14T13:02:13;5.32;;;2.50;;
19861;SDS011;10093;48.148;8.542;2023-06-14T13:04:40;5.25;;;2.38;;
19861;SDS011;10093;48.148;8.542;2023-06-14T13:07:05;2.60;;;2.40;;
19861;SDS011;10093;48.148;8.542;2023-06-14T13:09:31;6.38;;;2.53;;
19861;SDS011;10093;48.148;8.542;2023-06-14T13:11:57;3.75;;;2.60;;
19861;SDS011;10093;48.148;8.542;2023-06-14T13:14:22;8.00;;;2.58;;
19861;SDS011;10093;48.148;8.542;2023-06-14T13:16:48;2.47;;;2.28;;
19861;SDS011;10093;48.148;8.542;2023-06-14T13:19:14;4.28;;;2.28;;
19861;SDS011;10093;48.148;8.542;2023-06-14T13:21:39;6.38;;;2.50;;
19861;SDS011;10093;48.148;8.542;2023-06-14T13:24:05;5.50;;;2.50;;
19861;SDS011;10093;48.148;8.542;2023-06-14T13:26:32;7.55;;;2.70;;
19861;SDS011;10093;48.148;8.542;2023-06-14T13:28:58;18.83;;;3.15;;
19861;SDS011;10093;48.148;8.542;2023-06-14T13:31:24;7.75;;;2.75;;
19861;SDS011;10093;48.148;8.542;2023-06-14T13:33:49;4.88;;;2.30;;
19861;SDS011;10093;48.148;8.542;2023-06-14T13:36:15;6.43;;;2.33;;
19861;SDS011;10093;48.148;8.542;2023-06-14T13:38:41;13.48;;;3.10;;
19861;SDS011;10093;48.148;8.542;2023-06-14T13:41:06;7.75;;;2.97;;
19861;SDS011;10093;48.148;8.542;2023-06-14T13:43:32;6.82;;;2.80;;
19861;SDS011;10093;48.148;8.542;2023-06-14T13:45:57;4.32;;;2.75;;
19861;SDS011;10093;48.148;8.542;2023-06-14T13:48:23;5.10;;;2.72;;
19861;SDS011;10093;48.148;8.542;2023-06-14T13:50:49;5.15;;;3.00;;
19861;SDS011;10093;48.148;8.542;2023-06-14T13:53:15;6.93;;;3.05;;
19861;SDS011;10093;48.148;8.542;2023-06-14T13:55:41;5.07;;;2.42;;
19861;SDS011;10093;48.148;8.542;2023-06-14T13:58:06;5.90;;;3.03;;
19861;SDS011;10093;48.148;8.542;2023-06-14T14:00:32;3.10;;;2.75;;
19861;SDS011;10093;48.148;8.542;2023-06-14T14:02:57;7.93;;;3.25;;
19861;SDS011;10093;48.148;8.542;2023-06-14T14:05:24;8.10;;;3.15;;
19861;SDS011;10093;48.148;8.542;2023-06-14T14:07:54;4.25;;;2.65;;
19861;SDS011;10093;48.148;8.542;2023-06-14T14:10:21;5.18;;;2.97;;
19861;SDS011;10093;48.148;8.542;2023-06-14T14:12:48;5.50;;;3.10;;
19861;SDS011;10093;48.148;8.542;2023-06-14T14:15:14;6.78;;;2.83;;
19861;SDS011;10093;48.148;8.542;2023-06-14T14:17:40;3.55;;;2.60;;
19861;SDS011;10093;48.148;8.542;2023-06-14T14:20:06;9.35;;;2.90;;
19861;SDS011;10093;48.148;8.542;2023-06-14T14:22:32;4.78;;;2.60;;
19861;SDS011;10093;48.148;8.542;2023-06-14T14:24:58;5.63;;;2.50;;
19861;SDS011;10093;48.148;8.542;2023-06-14T14:27:23;6.05;;;3.13;;
19861;SDS011;10093;48.148;8.542;2023-06-14T14:29:49;5.47;;;2.38;;
19861;SDS011;10093;48.148;8.542;2023-06-14T14:32:15;8.60;;;2.95;;
19861;SDS011;10093;48.148;8.542;2023-06-14T14:34:40;6.82;;;2.92;;
19861;SDS011;10093;48.148;8.542;2023-06-14T14:37:06;4.43;;;2.60;;
19861;SDS011;10093;48.148;8.542;2023-06-14T14:39:32;6.50;;;3.08;;
19861;SDS011;10093;48.148;8.542;2023-06-14T14:41:58;7.43;;;2.80;;
19861;SDS011;10093;48.148;8.542;2023-06-14T14:44:23;10.65;;;2.95;;
19861;SDS011;10093;48.148;8.542;2023-06-14T14:46:49;3.85;;;2.97;;
19861;SDS011;10093;48.148;8.542;2023-06-14T14:49:15;3.70;;;2.88;;
19861;SDS011;10093;48.148;8.542;2023-06-14T14:51:40;6.47;;;3.40;;
19861;SDS011;10093;48.148;8.542;2023-06-14T14:54:06;6.75;;;2.67;;
19861;SDS011;10093;48.148;8.542;2023-06-14T14:56:32;6.03;;;3.13;;
19861;SDS011;10093;48.148;8.542;2023-06-14T14:59:13;5.72;;;2.47;;
19861;SDS011;10093;48.148;8.542;2023-06-14T15:01:39;5.28;;;2.80;;
19861;SDS011;10093;48.148;8.542;2023-06-14T15:04:06;6.30;;;2.88;;
19861;SDS011;10093;48.148;8.542;2023-06-14T15:06:31;8.93;;;2.88;;
19861;SDS011;10093;48.148;8.542;2023-06-14T15:09:00;7.38;;;2.97;;
19861;SDS011;10093;48.148;8.542;2023-06-14T15:11:26;7.60;;;2.58;;
19861;SDS011;10093;48.148;8.542;2023-06-14T15:13:52;5.60;;;2.80;;
19861;SDS011;10093;48.148;8.542;2023-06-14T15:16:17;3.28;;;2.65;;
19861;SDS011;10093;48.148;8.542;2023-06-14T15:18:43;4.30;;;2.92;;